sensor_id;sensor_type;location;lat;lon;timestamp;temperature;humidity
67192;HTU21D;54120;53.504;49.426;2023-06-04T00:00:29;16.29;66.78
67192;HTU21D;54120;53.504;49.426;2023-06-04T00:02:55;16.24;66.93
67192;HTU21D;54120;53.504;49.426;2023-06-04T00:05:21;16.20;66.97
67192;HTU21D;54120;53.504;49.426;2023-06-04T00:07:54;16.11;67.76
67192;HTU21D;54120;53.504;49.426;2023-06-04T00:10:20;16.02;67.97
67192;HTU21D;54120;53.504;49.426;2023-06-04T00:12:47;15.99;68.19
67192;HTU21D;54120;53.504;49.426;2023-06-04T00:15:14;16.08;67.87
67192;HTU21D;54120;53.504;49.426;2023-06-04T00:17:42;16.00;68.09
67192;HTU21D;54120;53.504;49.426;2023-06-04T00:20:09;16.03;68.09
67192;HTU21D;54120;53.504;49.426;2023-06-04T00:22:37;16.11;67.96
67192;HTU21D;54120;53.504;49.426;2023-06-04T00:25:04;16.04;68.20
67192;HTU21D;54120;53.504;49.426;2023-06-04T00:27:31;16.22;67.48
67192;HTU21D;54120;53.504;49.426;2023-06-04T00:29:57;16.37;67.00
67192;HTU21D;54120;53.504;49.426;2023-06-04T00:32:24;16.29;67.23
67192;HTU21D;54120;53.504;49.426;2023-06-04T00:34:51;16.26;67.29
67192;HTU21D;54120;53.504;49.426;2023-06-04T00:37:17;16.27;67.42
67192;HTU21D;54120;53.504;49.426;2023-06-04T00:39:44;16.27;67.45
67192;HTU21D;54120;53.504;49.426;2023-06-04T00:42:10;16.36;67.67
67192;HTU21D;54120;53.504;49.426;2023-06-04T00:44:36;16.47;67.18
67192;HTU21D;54120;53.504;49.426;2023-06-04T00:47:04;16.63;66.49
67192;HTU21D;54120;53.504;49.426;2023-06-04T00:49:31;17.17;64.79
67192;HTU21D;54120;53.504;49.426;2023-06-04T00:51:57;18.21;61.23
67192;HTU21D;54120;53.504;49.426;2023-06-04T00:54:24;18.99;58.34
67192;HTU21D;54120;53.504;49.426;2023-06-04T00:56:51;19.53;56.48
67192;HTU21D;54120;53.504;49.426;2023-06-04T00:59:17;20.10;54.74
67192;HTU21D;54120;53.504;49.426;2023-06-04T01:04:18;21.53;50.52
67192;HTU21D;54120;53.504;49.426;2023-06-04T01:06:50;22.06;49.03
67192;HTU21D;54120;53.504;49.426;2023-06-04T01:09:18;22.46;47.92
67192;HTU21D;54120;53.504;49.426;2023-06-04T01:11:44;22.80;47.36
67192;HTU21D;54120;53.504;49.426;2023-06-04T01:14:10;22.71;47.47
67192;HTU21D;54120;53.504;49.426;2023-06-04T01:16:45;22.78;47.29
67192;HTU21D;54120;53.504;49.426;2023-06-04T01:25:13;23.32;46.02
67192;HTU21D;54120;53.504;49.426;2023-06-04T01:27:49;22.72;47.92
67192;HTU21D;54120;53.504;49.426;2023-06-04T01:30:17;20.94;53.36
67192;HTU21D;54120;53.504;49.426;2023-06-04T01:32:43;20.00;56.55
67192;HTU21D;54120;53.504;49.426;2023-06-04T01:35:11;19.79;57.78
67192;HTU21D;54120;53.504;49.426;2023-06-04T01:37:37;19.60;58.58
67192;HTU21D;54120;53.504;49.426;2023-06-04T01:40:04;19.38;60.29
67192;HTU21D;54120;53.504;49.426;2023-06-04T01:42:31;19.35;59.89
67192;HTU21D;54120;53.504;49.426;2023-06-04T01:44:57;19.65;58.77
67192;HTU21D;54120;53.504;49.426;2023-06-04T01:47:23;19.70;59.33
67192;HTU21D;54120;53.504;49.426;2023-06-04T01:49:49;19.84;58.69
67192;HTU21D;54120;53.504;49.426;2023-06-04T01:52:15;19.71;59.72
67192;HTU21D;54120;53.504;49.426;2023-06-04T01:54:42;19.66;59.81
67192;HTU21D;54120;53.504;49.426;2023-06-04T01:57:08;19.99;59.93
67192;HTU21D;54120;53.504;49.426;2023-06-04T01:59:37;21.06;56.23
67192;HTU21D;54120;53.504;49.426;2023-06-04T02:02:04;24.01;47.90
67192;HTU21D;54120;53.504;49.426;2023-06-04T02:04:31;26.26;41.82
67192;HTU21D;54120;53.504;49.426;2023-06-04T02:06:57;28.04;37.33
67192;HTU21D;54120;53.504;49.426;2023-06-04T02:09:25;29.75;33.76
67192;HTU21D;54120;53.504;49.426;2023-06-04T02:11:52;30.74;31.73
67192;HTU21D;54120;53.504;49.426;2023-06-04T02:14:18;31.34;31.03
67192;HTU21D;54120;53.504;49.426;2023-06-04T02:16:44;31.56;30.43
67192;HTU21D;54120;53.504;49.426;2023-06-04T02:19:11;31.57;30.37
67192;HTU21D;54120;53.504;49.426;2023-06-04T02:21:38;31.86;30.38
67192;HTU21D;54120;53.504;49.426;2023-06-04T02:24:05;32.02;29.49
67192;HTU21D;54120;53.504;49.426;2023-06-04T02:26:31;32.25;28.98
67192;HTU21D;54120;53.504;49.426;2023-06-04T02:28:58;32.78;28.23
67192;HTU21D;54120;53.504;49.426;2023-06-04T02:31:24;33.06;27.65
67192;HTU21D;54120;53.504;49.426;2023-06-04T02:33:50;33.48;26.70
67192;HTU21D;54120;53.504;49.426;2023-06-04T02:36:17;34.05;25.65
67192;HTU21D;54120;53.504;49.426;2023-06-04T02:38:43;34.29;24.83
67192;HTU21D;54120;53.504;49.426;2023-06-04T02:41:09;34.20;25.30
67192;HTU21D;54120;53.504;49.426;2023-06-04T02:43:36;35.01;24.53
67192;HTU21D;54120;53.504;49.426;2023-06-04T02:46:03;35.41;23.98
67192;HTU21D;54120;53.504;49.426;2023-06-04T02:48:29;35.93;23.27
67192;HTU21D;54120;53.504;49.426;2023-06-04T02:50:55;36.19;23.37
67192;HTU21D;54120;53.504;49.426;2023-06-04T02:53:22;36.60;22.37
67192;HTU21D;54120;53.504;49.426;2023-06-04T02:55:49;36.76;22.40
67192;HTU21D;54120;53.504;49.426;2023-06-04T02:58:19;37.43;21.13
67192;HTU21D;54120;53.504;49.426;2023-06-04T03:00:47;37.28;21.95
67192;HTU21D;54120;53.504;49.426;2023-06-04T03:03:14;37.42;21.89
67192;HTU21D;54120;53.504;49.426;2023-06-04T03:05:40;37.40;21.18
67192;HTU21D;54120;53.504;49.426;2023-06-04T03:08:08;37.40;19.15
67192;HTU21D;54120;53.504;49.426;2023-06-04T03:10:34;37.08;20.67
67192;HTU21D;54120;53.504;49.426;2023-06-04T03:13:00;36.54;21.60
67192;HTU21D;54120;53.504;49.426;2023-06-04T03:15:26;36.93;20.00
67192;HTU21D;54120;53.504;49.426;2023-06-04T03:17:52;36.87;20.63
67192;HTU21D;54120;53.504;49.426;2023-06-04T03:20:18;37.17;20.47
67192;HTU21D;54120;53.504;49.426;2023-06-04T03:22:44;37.85;19.53
67192;HTU21D;54120;53.504;49.426;2023-06-04T03:25:10;38.75;18.01
67192;HTU21D;54120;53.504;49.426;2023-06-04T03:27:36;38.35;18.14
67192;HTU21D;54120;53.504;49.426;2023-06-04T03:30:03;37.21;18.89
67192;HTU21D;54120;53.504;49.426;2023-06-04T03:32:29;36.77;20.89
67192;HTU21D;54120;53.504;49.426;2023-06-04T03:34:55;37.38;18.59
67192;HTU21D;54120;53.504;49.426;2023-06-04T03:37:21;37.65;19.31
67192;HTU21D;54120;53.504;49.426;2023-06-04T03:39:47;37.79;19.21
67192;HTU21D;54120;53.504;49.426;2023-06-04T03:42:13;38.14;18.87
67192;HTU21D;54120;53.504;49.426;2023-06-04T03:44:39;38.35;17.96
67192;HTU21D;54120;53.504;49.426;2023-06-04T03:47:05;38.62;17.12
67192;HTU21D;54120;53.504;49.426;2023-06-04T03:49:31;39.41;16.64
67192;HTU21D;54120;53.504;49.426;2023-06-04T03:51:57;39.55;15.55
67192;HTU21D;54120;53.504;49.426;2023-06-04T03:54:23;39.72;15.70
67192;HTU21D;54120;53.504;49.426;2023-06-04T03:56:49;39.13;16.69
67192;HTU21D;54120;53.504;49.426;2023-06-04T03:59:15;39.56;15.80
67192;HTU21D;54120;53.504;49.426;2023-06-04T04:01:42;40.54;14.13
67192;HTU21D;54120;53.504;49.426;2023-06-04T04:04:08;40.53;14.91
67192;HTU21D;54120;53.504;49.426;2023-06-04T04:06:35;39.36;16.23
67192;HTU21D;54120;53.504;49.426;2023-06-04T04:09:02;39.66;16.03
67192;HTU21D;54120;53.504;49.426;2023-06-04T04:11:30;39.02;16.69
67192;HTU21D;54120;53.504;49.426;2023-06-04T04:13:56;39.62;16.07
67192;HTU21D;54120;53.504;49.426;2023-06-04T04:16:23;39.52;15.84
67192;HTU21D;54120;53.504;49.426;2023-06-04T04:18:52;38.85;17.19
67192;HTU21D;54120;53.504;49.426;2023-06-04T04:21:19;39.51;16.84
67192;HTU21D;54120;53.504;49.426;2023-06-04T04:23:46;39.79;15.45
67192;HTU21D;54120;53.504;49.426;2023-06-04T04:26:13;39.79;15.36
67192;HTU21D;54120;53.504;49.426;2023-06-04T04:28:43;39.54;15.41
67192;HTU21D;54120;53.504;49.426;2023-06-04T04:31:09;39.12;16.10
67192;HTU21D;54120;53.504;49.426;2023-06-04T04:33:36;38.85;16.54
67192;HTU21D;54120;53.504;49.426;2023-06-04T04:36:06;39.84;15.91
67192;HTU21D;54120;53.504;49.426;2023-06-04T04:38:38;40.46;14.80
67192;HTU21D;54120;53.504;49.426;2023-06-04T04:41:05;39.65;15.59
67192;HTU21D;54120;53.504;49.426;2023-06-04T04:43:35;39.67;15.84
67192;HTU21D;54120;53.504;49.426;2023-06-04T04:46:01;40.87;14.68
67192;HTU21D;54120;53.504;49.426;2023-06-04T04:48:28;39.80;15.70
67192;HTU21D;54120;53.504;49.426;2023-06-04T04:50:54;40.50;15.39
67192;HTU21D;54120;53.504;49.426;2023-06-04T04:53:21;40.02;15.20
67192;HTU21D;54120;53.504;49.426;2023-06-04T04:55:47;39.85;15.19
67192;HTU21D;54120;53.504;49.426;2023-06-04T04:58:14;40.13;14.87
67192;HTU21D;54120;53.504;49.426;2023-06-04T05:00:41;39.97;14.90
67192;HTU21D;54120;53.504;49.426;2023-06-04T05:03:07;39.65;14.74
67192;HTU21D;54120;53.504;49.426;2023-06-04T05:05:34;38.59;15.90
67192;HTU21D;54120;53.504;49.426;2023-06-04T05:08:00;38.02;16.70
67192;HTU21D;54120;53.504;49.426;2023-06-04T05:10:26;39.21;15.30
67192;HTU21D;54120;53.504;49.426;2023-06-04T05:12:56;39.04;16.15
67192;HTU21D;54120;53.504;49.426;2023-06-04T05:15:23;40.14;14.71
67192;HTU21D;54120;53.504;49.426;2023-06-04T05:17:50;39.08;16.72
67192;HTU21D;54120;53.504;49.426;2023-06-04T05:20:19;37.65;17.86
67192;HTU21D;54120;53.504;49.426;2023-06-04T05:22:47;35.80;20.73
67192;HTU21D;54120;53.504;49.426;2023-06-04T05:25:13;36.71;19.57
67192;HTU21D;54120;53.504;49.426;2023-06-04T05:27:40;35.12;21.84
67192;HTU21D;54120;53.504;49.426;2023-06-04T05:30:08;33.21;24.75
67192;HTU21D;54120;53.504;49.426;2023-06-04T05:32:34;32.07;27.39
67192;HTU21D;54120;53.504;49.426;2023-06-04T05:35:07;31.00;28.46
67192;HTU21D;54120;53.504;49.426;2023-06-04T05:37:34;30.83;28.90
67192;HTU21D;54120;53.504;49.426;2023-06-04T05:40:01;30.62;29.73
67192;HTU21D;54120;53.504;49.426;2023-06-04T05:42:28;32.09;27.13
67192;HTU21D;54120;53.504;49.426;2023-06-04T05:44:55;32.92;26.04
67192;HTU21D;54120;53.504;49.426;2023-06-04T05:47:21;33.21;25.20
67192;HTU21D;54120;53.504;49.426;2023-06-04T05:49:48;32.56;26.32
67192;HTU21D;54120;53.504;49.426;2023-06-04T05:52:14;31.46;29.03
67192;HTU21D;54120;53.504;49.426;2023-06-04T05:54:40;30.77;30.70
67192;HTU21D;54120;53.504;49.426;2023-06-04T05:57:07;30.54;31.19
67192;HTU21D;54120;53.504;49.426;2023-06-04T05:59:34;31.08;29.39
67192;HTU21D;54120;53.504;49.426;2023-06-04T06:02:00;32.12;28.19
67192;HTU21D;54120;53.504;49.426;2023-06-04T06:04:26;33.85;25.22
67192;HTU21D;54120;53.504;49.426;2023-06-04T06:06:53;35.35;23.38
67192;HTU21D;54120;53.504;49.426;2023-06-04T06:09:19;35.53;22.47
67192;HTU21D;54120;53.504;49.426;2023-06-04T06:11:46;36.57;20.79
67192;HTU21D;54120;53.504;49.426;2023-06-04T06:14:12;38.01;19.09
67192;HTU21D;54120;53.504;49.426;2023-06-04T06:16:38;38.61;17.93
67192;HTU21D;54120;53.504;49.426;2023-06-04T06:19:04;35.40;22.46
67192;HTU21D;54120;53.504;49.426;2023-06-04T06:21:31;34.69;23.98
67192;HTU21D;54120;53.504;49.426;2023-06-04T06:23:57;36.12;22.27
67192;HTU21D;54120;53.504;49.426;2023-06-04T06:26:24;36.48;22.14
67192;HTU21D;54120;53.504;49.426;2023-06-04T06:28:51;38.81;18.67
67192;HTU21D;54120;53.504;49.426;2023-06-04T06:31:17;39.07;18.22
67192;HTU21D;54120;53.504;49.426;2023-06-04T06:33:44;40.26;16.23
67192;HTU21D;54120;53.504;49.426;2023-06-04T06:36:11;37.71;19.66
67192;HTU21D;54120;53.504;49.426;2023-06-04T06:38:40;34.50;24.17
67192;HTU21D;54120;53.504;49.426;2023-06-04T06:41:08;32.40;28.22
67192;HTU21D;54120;53.504;49.426;2023-06-04T06:43:34;34.04;25.58
67192;HTU21D;54120;53.504;49.426;2023-06-04T06:46:00;35.72;23.15
67192;HTU21D;54120;53.504;49.426;2023-06-04T06:48:27;35.85;23.34
67192;HTU21D;54120;53.504;49.426;2023-06-04T06:50:54;34.55;24.72
67192;HTU21D;54120;53.504;49.426;2023-06-04T06:53:20;33.92;25.81
67192;HTU21D;54120;53.504;49.426;2023-06-04T06:55:46;33.74;26.90
67192;HTU21D;54120;53.504;49.426;2023-06-04T06:58:13;33.03;27.31
67192;HTU21D;54120;53.504;49.426;2023-06-04T07:00:39;32.86;27.82
67192;HTU21D;54120;53.504;49.426;2023-06-04T07:03:05;32.92;27.58
67192;HTU21D;54120;53.504;49.426;2023-06-04T07:05:32;32.70;27.97
67192;HTU21D;54120;53.504;49.426;2023-06-04T07:07:58;31.81;30.70
67192;HTU21D;54120;53.504;49.426;2023-06-04T07:10:26;31.09;32.18
67192;HTU21D;54120;53.504;49.426;2023-06-04T07:12:53;30.83;31.95
67192;HTU21D;54120;53.504;49.426;2023-06-04T07:15:19;30.08;34.18
67192;HTU21D;54120;53.504;49.426;2023-06-04T07:17:46;30.19;34.53
67192;HTU21D;54120;53.504;49.426;2023-06-04T07:20:12;29.94;34.81
67192;HTU21D;54120;53.504;49.426;2023-06-04T07:22:38;29.98;35.28
67192;HTU21D;54120;53.504;49.426;2023-06-04T07:25:05;32.20;30.74
67192;HTU21D;54120;53.504;49.426;2023-06-04T07:27:33;32.64;28.98
67192;HTU21D;54120;53.504;49.426;2023-06-04T07:29:59;31.51;30.06
67192;HTU21D;54120;53.504;49.426;2023-06-04T07:32:26;30.84;31.63
67192;HTU21D;54120;53.504;49.426;2023-06-04T07:34:52;30.65;32.64
67192;HTU21D;54120;53.504;49.426;2023-06-04T07:37:19;30.05;33.79
67192;HTU21D;54120;53.504;49.426;2023-06-04T07:39:45;29.39;35.33
67192;HTU21D;54120;53.504;49.426;2023-06-04T07:42:13;31.37;31.73
67192;HTU21D;54120;53.504;49.426;2023-06-04T07:44:39;33.72;27.23
67192;HTU21D;54120;53.504;49.426;2023-06-04T07:47:06;32.43;29.56
67192;HTU21D;54120;53.504;49.426;2023-06-04T07:49:32;31.49;31.82
67192;HTU21D;54120;53.504;49.426;2023-06-04T07:51:58;30.42;35.10
67192;HTU21D;54120;53.504;49.426;2023-06-04T07:54:25;29.86;36.02
67192;HTU21D;54120;53.504;49.426;2023-06-04T07:56:51;28.50;39.24
67192;HTU21D;54120;53.504;49.426;2023-06-04T07:59:25;28.46;39.30
67192;HTU21D;54120;53.504;49.426;2023-06-04T08:01:51;27.84;40.42
67192;HTU21D;54120;53.504;49.426;2023-06-04T08:04:18;27.25;42.13
67192;HTU21D;54120;53.504;49.426;2023-06-04T08:06:44;27.30;42.45
67192;HTU21D;54120;53.504;49.426;2023-06-04T08:09:11;27.31;41.99
67192;HTU21D;54120;53.504;49.426;2023-06-04T08:11:39;27.16;42.15
67192;HTU21D;54120;53.504;49.426;2023-06-04T08:14:05;27.05;42.61
67192;HTU21D;54120;53.504;49.426;2023-06-04T08:16:31;27.68;40.94
67192;HTU21D;54120;53.504;49.426;2023-06-04T08:18:58;27.75;41.05
67192;HTU21D;54120;53.504;49.426;2023-06-04T08:21:28;26.80;42.29
67192;HTU21D;54120;53.504;49.426;2023-06-04T08:23:55;25.93;44.54
67192;HTU21D;54120;53.504;49.426;2023-06-04T08:26:21;25.87;45.37
67192;HTU21D;54120;53.504;49.426;2023-06-04T08:28:49;25.36;45.75
67192;HTU21D;54120;53.504;49.426;2023-06-04T08:31:15;25.17;47.03
67192;HTU21D;54120;53.504;49.426;2023-06-04T08:33:45;25.07;46.91
67192;HTU21D;54120;53.504;49.426;2023-06-04T08:36:11;25.12;47.40
67192;HTU21D;54120;53.504;49.426;2023-06-04T08:38:38;25.24;46.39
67192;HTU21D;54120;53.504;49.426;2023-06-04T08:41:13;24.88;46.81
67192;HTU21D;54120;53.504;49.426;2023-06-04T08:43:42;24.62;47.18
67192;HTU21D;54120;53.504;49.426;2023-06-04T08:46:13;24.65;48.47
67192;HTU21D;54120;53.504;49.426;2023-06-04T08:48:40;24.76;48.59
67192;HTU21D;54120;53.504;49.426;2023-06-04T08:51:07;24.86;46.98
67192;HTU21D;54120;53.504;49.426;2023-06-04T08:53:35;24.80;46.66
67192;HTU21D;54120;53.504;49.426;2023-06-04T08:56:03;24.77;46.51
67192;HTU21D;54120;53.504;49.426;2023-06-04T08:58:32;24.76;47.30
67192;HTU21D;54120;53.504;49.426;2023-06-04T09:01:02;24.63;48.24
67192;HTU21D;54120;53.504;49.426;2023-06-04T09:03:29;24.60;48.70
67192;HTU21D;54120;53.504;49.426;2023-06-04T09:05:59;24.91;47.43
67192;HTU21D;54120;53.504;49.426;2023-06-04T09:08:26;24.64;48.88
67192;HTU21D;54120;53.504;49.426;2023-06-04T09:10:55;24.26;49.88
67192;HTU21D;54120;53.504;49.426;2023-06-04T09:13:22;24.11;49.69
67192;HTU21D;54120;53.504;49.426;2023-06-04T09:16:03;24.12;50.41
67192;HTU21D;54120;53.504;49.426;2023-06-04T09:18:30;24.21;50.50
67192;HTU21D;54120;53.504;49.426;2023-06-04T09:21:05;24.47;49.53
67192;HTU21D;54120;53.504;49.426;2023-06-04T09:23:50;24.54;49.70
67192;HTU21D;54120;53.504;49.426;2023-06-04T09:26:16;24.25;50.97
67192;HTU21D;54120;53.504;49.426;2023-06-04T09:28:43;24.63;50.47
67192;HTU21D;54120;53.504;49.426;2023-06-04T09:31:19;24.74;48.66
67192;HTU21D;54120;53.504;49.426;2023-06-04T09:33:50;24.46;48.43
67192;HTU21D;54120;53.504;49.426;2023-06-04T09:36:17;24.23;49.90
67192;HTU21D;54120;53.504;49.426;2023-06-04T09:38:43;24.03;50.79
67192;HTU21D;54120;53.504;49.426;2023-06-04T09:41:18;23.89;51.45
67192;HTU21D;54120;53.504;49.426;2023-06-04T09:43:47;23.70;51.81
67192;HTU21D;54120;53.504;49.426;2023-06-04T09:46:16;23.82;51.33
67192;HTU21D;54120;53.504;49.426;2023-06-04T09:48:43;23.81;52.16
67192;HTU21D;54120;53.504;49.426;2023-06-04T09:51:14;23.83;52.53
67192;HTU21D;54120;53.504;49.426;2023-06-04T09:54:00;24.13;52.06
67192;HTU21D;54120;53.504;49.426;2023-06-04T09:56:26;24.21;51.68
67192;HTU21D;54120;53.504;49.426;2023-06-04T09:58:58;23.86;52.58
67192;HTU21D;54120;53.504;49.426;2023-06-04T10:01:28;24.06;52.75
67192;HTU21D;54120;53.504;49.426;2023-06-04T10:03:54;24.21;51.92
67192;HTU21D;54120;53.504;49.426;2023-06-04T10:06:22;23.98;53.01
67192;HTU21D;54120;53.504;49.426;2023-06-04T10:08:49;23.99;51.88
67192;HTU21D;54120;53.504;49.426;2023-06-04T10:11:26;23.60;53.23
67192;HTU21D;54120;53.504;49.426;2023-06-04T10:14:05;23.20;54.97
67192;HTU21D;54120;53.504;49.426;2023-06-04T10:16:37;23.21;54.82
67192;HTU21D;54120;53.504;49.426;2023-06-04T10:19:04;22.95;55.53
67192;HTU21D;54120;53.504;49.426;2023-06-04T10:21:32;22.82;56.19
67192;HTU21D;54120;53.504;49.426;2023-06-04T10:24:00;22.84;56.17
67192;HTU21D;54120;53.504;49.426;2023-06-04T10:26:27;23.35;55.28
67192;HTU21D;54120;53.504;49.426;2023-06-04T10:28:53;23.57;54.62
67192;HTU21D;54120;53.504;49.426;2023-06-04T10:31:19;22.96;55.66
67192;HTU21D;54120;53.504;49.426;2023-06-04T10:33:45;22.67;55.90
67192;HTU21D;54120;53.504;49.426;2023-06-04T10:36:18;22.60;55.38
67192;HTU21D;54120;53.504;49.426;2023-06-04T10:41:14;22.79;54.15
67192;HTU21D;54120;53.504;49.426;2023-06-04T10:43:42;22.78;54.09
67192;HTU21D;54120;53.504;49.426;2023-06-04T10:46:15;22.72;55.13
67192;HTU21D;54120;53.504;49.426;2023-06-04T10:48:52;22.67;54.97
67192;HTU21D;54120;53.504;49.426;2023-06-04T10:51:34;22.43;55.23
67192;HTU21D;54120;53.504;49.426;2023-06-04T10:54:03;22.12;57.60
67192;HTU21D;54120;53.504;49.426;2023-06-04T10:56:31;22.20;57.57
67192;HTU21D;54120;53.504;49.426;2023-06-04T10:58:58;22.17;57.46
67192;HTU21D;54120;53.504;49.426;2023-06-04T11:01:25;21.79;58.34
67192;HTU21D;54120;53.504;49.426;2023-06-04T11:03:52;21.55;59.50
67192;HTU21D;54120;53.504;49.426;2023-06-04T11:06:19;21.40;59.77
67192;HTU21D;54120;53.504;49.426;2023-06-04T11:08:47;21.25;59.36
67192;HTU21D;54120;53.504;49.426;2023-06-04T11:11:15;21.52;58.03
67192;HTU21D;54120;53.504;49.426;2023-06-04T11:13:42;21.01;59.22
67192;HTU21D;54120;53.504;49.426;2023-06-04T11:16:20;20.90;59.70
67192;HTU21D;54120;53.504;49.426;2023-06-04T11:18:56;20.89;59.64
67192;HTU21D;54120;53.504;49.426;2023-06-04T11:21:23;20.71;59.25
67192;HTU21D;54120;53.504;49.426;2023-06-04T11:23:57;20.53;59.51
67192;HTU21D;54120;53.504;49.426;2023-06-04T11:26:34;20.49;60.04
67192;HTU21D;54120;53.504;49.426;2023-06-04T11:29:01;20.64;59.48
67192;HTU21D;54120;53.504;49.426;2023-06-04T11:31:28;20.55;59.39
67192;HTU21D;54120;53.504;49.426;2023-06-04T11:33:54;20.44;59.88
67192;HTU21D;54120;53.504;49.426;2023-06-04T11:36:28;20.51;59.38
67192;HTU21D;54120;53.504;49.426;2023-06-04T11:39:02;20.65;58.41
67192;HTU21D;54120;53.504;49.426;2023-06-04T11:41:30;20.85;58.27
67192;HTU21D;54120;53.504;49.426;2023-06-04T11:43:57;20.65;58.54
67192;HTU21D;54120;53.504;49.426;2023-06-04T11:46:24;20.37;59.44
67192;HTU21D;54120;53.504;49.426;2023-06-04T11:48:51;20.69;58.03
67192;HTU21D;54120;53.504;49.426;2023-06-04T11:51:20;20.63;57.13
67192;HTU21D;54120;53.504;49.426;2023-06-04T11:53:48;20.70;56.79
67192;HTU21D;54120;53.504;49.426;2023-06-04T11:56:16;20.68;56.45
67192;HTU21D;54120;53.504;49.426;2023-06-04T11:58:43;20.80;55.93
67192;HTU21D;54120;53.504;49.426;2023-06-04T12:01:12;20.80;55.87
67192;HTU21D;54120;53.504;49.426;2023-06-04T12:03:41;20.48;57.25
67192;HTU21D;54120;53.504;49.426;2023-06-04T12:08:50;20.16;57.74
67192;HTU21D;54120;53.504;49.426;2023-06-04T12:13:55;20.13;57.65
67192;HTU21D;54120;53.504;49.426;2023-06-04T12:16:22;20.41;56.53
67192;HTU21D;54120;53.504;49.426;2023-06-04T12:18:48;20.22;56.67
67192;HTU21D;54120;53.504;49.426;2023-06-04T12:21:23;20.12;56.57
67192;HTU21D;54120;53.504;49.426;2023-06-04T12:23:54;20.05;56.23
67192;HTU21D;54120;53.504;49.426;2023-06-04T12:26:22;19.62;57.97
67192;HTU21D;54120;53.504;49.426;2023-06-04T12:29:14;19.37;58.75
67192;HTU21D;54120;53.504;49.426;2023-06-04T12:31:42;19.51;58.33
67192;HTU21D;54120;53.504;49.426;2023-06-04T12:34:10;19.51;59.06
67192;HTU21D;54120;53.504;49.426;2023-06-04T12:36:37;19.74;58.60
67192;HTU21D;54120;53.504;49.426;2023-06-04T12:39:04;19.95;58.24
67192;HTU21D;54120;53.504;49.426;2023-06-04T12:41:32;19.92;58.44
67192;HTU21D;54120;53.504;49.426;2023-06-04T12:44:00;19.58;59.88
67192;HTU21D;54120;53.504;49.426;2023-06-04T12:46:27;19.60;59.99
67192;HTU21D;54120;53.504;49.426;2023-06-04T12:48:56;19.60;59.77
67192;HTU21D;54120;53.504;49.426;2023-06-04T12:51:22;19.60;59.28
67192;HTU21D;54120;53.504;49.426;2023-06-04T12:53:49;19.53;59.13
67192;HTU21D;54120;53.504;49.426;2023-06-04T12:56:16;19.22;59.47
67192;HTU21D;54120;53.504;49.426;2023-06-04T12:58:42;18.95;60.60
67192;HTU21D;54120;53.504;49.426;2023-06-04T13:01:09;18.96;60.48
67192;HTU21D;54120;53.504;49.426;2023-06-04T13:03:36;18.96;60.48
67192;HTU21D;54120;53.504;49.426;2023-06-04T13:06:03;18.85;61.21
67192;HTU21D;54120;53.504;49.426;2023-06-04T13:08:30;18.94;61.27
67192;HTU21D;54120;53.504;49.426;2023-06-04T13:10:56;19.01;60.85
67192;HTU21D;54120;53.504;49.426;2023-06-04T13:13:22;19.13;60.65
67192;HTU21D;54120;53.504;49.426;2023-06-04T13:15:49;19.08;60.70
67192;HTU21D;54120;53.504;49.426;2023-06-04T13:18:15;19.29;60.31
67192;HTU21D;54120;53.504;49.426;2023-06-04T13:20:42;19.51;59.61
67192;HTU21D;54120;53.504;49.426;2023-06-04T13:23:09;19.36;60.25
67192;HTU21D;54120;53.504;49.426;2023-06-04T13:25:36;19.33;60.18
67192;HTU21D;54120;53.504;49.426;2023-06-04T13:28:03;19.38;60.10
67192;HTU21D;54120;53.504;49.426;2023-06-04T13:30:30;19.26;60.56
67192;HTU21D;54120;53.504;49.426;2023-06-04T13:32:56;19.25;60.73
67192;HTU21D;54120;53.504;49.426;2023-06-04T13:35:26;19.09;61.05
67192;HTU21D;54120;53.504;49.426;2023-06-04T13:37:52;19.18;61.05
67192;HTU21D;54120;53.504;49.426;2023-06-04T13:40:18;18.87;61.86
67192;HTU21D;54120;53.504;49.426;2023-06-04T13:42:46;18.63;62.44
67192;HTU21D;54120;53.504;49.426;2023-06-04T13:45:12;18.65;62.20
67192;HTU21D;54120;53.504;49.426;2023-06-04T13:47:39;18.68;62.07
67192;HTU21D;54120;53.504;49.426;2023-06-04T13:50:07;18.77;61.55
67192;HTU21D;54120;53.504;49.426;2023-06-04T13:52:33;18.70;61.80
67192;HTU21D;54120;53.504;49.426;2023-06-04T13:54:59;18.43;62.50
67192;HTU21D;54120;53.504;49.426;2023-06-04T13:57:27;18.39;62.77
67192;HTU21D;54120;53.504;49.426;2023-06-04T13:59:53;18.44;62.68
67192;HTU21D;54120;53.504;49.426;2023-06-04T14:02:20;18.58;60.89
67192;HTU21D;54120;53.504;49.426;2023-06-04T14:04:47;18.26;61.42
67192;HTU21D;54120;53.504;49.426;2023-06-04T14:07:13;17.83;62.95
67192;HTU21D;54120;53.504;49.426;2023-06-04T14:09:40;17.96;63.11
67192;HTU21D;54120;53.504;49.426;2023-06-04T14:12:07;18.07;62.82
67192;HTU21D;54120;53.504;49.426;2023-06-04T14:14:35;17.91;63.07
67192;HTU21D;54120;53.504;49.426;2023-06-04T14:17:05;17.99;62.57
67192;HTU21D;54120;53.504;49.426;2023-06-04T14:19:35;18.05;62.38
67192;HTU21D;54120;53.504;49.426;2023-06-04T14:22:02;18.18;61.90
67192;HTU21D;54120;53.504;49.426;2023-06-04T14:24:28;18.42;61.41
67192;HTU21D;54120;53.504;49.426;2023-06-04T14:26:56;18.55;60.65
67192;HTU21D;54120;53.504;49.426;2023-06-04T14:29:22;18.63;60.60
67192;HTU21D;54120;53.504;49.426;2023-06-04T14:31:49;18.52;60.02
67192;HTU21D;54120;53.504;49.426;2023-06-04T14:34:15;18.23;60.28
67192;HTU21D;54120;53.504;49.426;2023-06-04T14:36:41;18.07;61.19
67192;HTU21D;54120;53.504;49.426;2023-06-04T14:39:08;18.28;59.86
67192;HTU21D;54120;53.504;49.426;2023-06-04T14:41:39;18.04;60.41
67192;HTU21D;54120;53.504;49.426;2023-06-04T14:44:06;18.06;59.96
67192;HTU21D;54120;53.504;49.426;2023-06-04T14:46:33;18.19;59.70
67192;HTU21D;54120;53.504;49.426;2023-06-04T14:49:00;18.37;58.64
67192;HTU21D;54120;53.504;49.426;2023-06-04T14:51:26;18.33;58.78
67192;HTU21D;54120;53.504;49.426;2023-06-04T14:53:52;18.36;59.16
67192;HTU21D;54120;53.504;49.426;2023-06-04T14:56:18;18.06;59.92
67192;HTU21D;54120;53.504;49.426;2023-06-04T14:58:45;17.89;59.96
67192;HTU21D;54120;53.504;49.426;2023-06-04T15:01:11;17.66;60.86
67192;HTU21D;54120;53.504;49.426;2023-06-04T15:03:40;17.40;61.63
67192;HTU21D;54120;53.504;49.426;2023-06-04T15:06:07;17.24;61.62
67192;HTU21D;54120;53.504;49.426;2023-06-04T15:08:33;17.20;62.02
67192;HTU21D;54120;53.504;49.426;2023-06-04T15:10:58;17.25;62.15
67192;HTU21D;54120;53.504;49.426;2023-06-04T15:13:24;17.39;61.91
67192;HTU21D;54120;53.504;49.426;2023-06-04T15:15:51;17.47;60.66
67192;HTU21D;54120;53.504;49.426;2023-06-04T15:18:17;17.32;61.26
67192;HTU21D;54120;53.504;49.426;2023-06-04T15:20:43;17.30;60.90